St Columbans, Nebraska
Current Conditions -  °F | °C
As of 1:55 AM on Friday 31 Oct 2014 (Local Time) from KMLE Reporting Station
Overcast Overcast  
Wind Chill: 29°   Ceiling: 2700
Heat Index: 38°   Visibility: 10mi
Dew Point: 26°   Wind: 17mph
Humidity: 63%   Direction: 330°NNW
Pressure: 30.44"   Gusts: 24mph
Location:  41.0927°N, 96.0905°W
Report Text: KMLE 310655Z AUTO 33015G21KT 10SM OVC027 03/M03 A3044 RMK AO2 T00331031
Loading
Personal Weather Stations






























Interactive Weather Map
Tropical Storm Tracking
New forecast layout! Learn more

10-Day Weather Forecast

Advertisements
Track Severe Weather on mobile